sensor_id;sensor_type;location;lat;lon;timestamp;temperature;humidity
40287;DHT22;25998;46.604;13.610;2022-09-09T00:00:15;17.70;99.90
40287;DHT22;25998;46.604;13.610;2022-09-09T00:03:43;17.70;99.90
40287;DHT22;25998;46.604;13.610;2022-09-09T00:07:15;17.40;99.90
40287;DHT22;25998;46.604;13.610;2022-09-09T00:10:32;17.10;99.90
40287;DHT22;25998;46.604;13.610;2022-09-09T00:13:49;17.20;99.90
40287;DHT22;25998;46.604;13.610;2022-09-09T00:17:12;17.50;99.90
40287;DHT22;25998;46.604;13.610;2022-09-09T00:23:56;17.70;99.90
40287;DHT22;25998;46.604;13.610;2022-09-09T00:27:41;17.70;99.90
40287;DHT22;25998;46.604;13.610;2022-09-09T00:30:54;17.70;99.90
40287;DHT22;25998;46.604;13.610;2022-09-09T00:34:14;17.80;99.90
40287;DHT22;25998;46.604;13.610;2022-09-09T00:37:29;17.70;99.90
40287;DHT22;25998;46.604;13.610;2022-09-09T00:41:10;17.70;99.90
40287;DHT22;25998;46.604;13.610;2022-09-09T00:47:52;17.60;99.90
40287;DHT22;25998;46.604;13.610;2022-09-09T00:58:20;17.40;99.90
40287;DHT22;25998;46.604;13.610;2022-09-09T01:01:31;17.40;99.90
40287;DHT22;25998;46.604;13.610;2022-09-09T01:04:41;17.50;99.90
40287;DHT22;25998;46.604;13.610;2022-09-09T01:07:52;17.60;99.90
40287;DHT22;25998;46.604;13.610;2022-09-09T01:11:05;17.50;99.90
40287;DHT22;25998;46.604;13.610;2022-09-09T01:14:44;17.30;99.90
40287;DHT22;25998;46.604;13.610;2022-09-09T01:18:12;17.40;99.90
40287;DHT22;25998;46.604;13.610;2022-09-09T01:21:42;17.20;99.90
40287;DHT22;25998;46.604;13.610;2022-09-09T01:25:21;16.90;99.90
40287;DHT22;25998;46.604;13.610;2022-09-09T01:28:36;17.00;99.90
40287;DHT22;25998;46.604;13.610;2022-09-09T01:32:02;17.20;99.90
40287;DHT22;25998;46.604;13.610;2022-09-09T01:35:39;17.20;99.90
40287;DHT22;25998;46.604;13.610;2022-09-09T01:38:54;17.30;99.90
40287;DHT22;25998;46.604;13.610;2022-09-09T01:42:08;17.30;99.90
40287;DHT22;25998;46.604;13.610;2022-09-09T01:45:19;17.20;99.90
40287;DHT22;25998;46.604;13.610;2022-09-09T01:48:32;17.10;99.90
40287;DHT22;25998;46.604;13.610;2022-09-09T01:51:44;17.10;99.90
40287;DHT22;25998;46.604;13.610;2022-09-09T01:54:56;17.10;99.90
40287;DHT22;25998;46.604;13.610;2022-09-09T02:05:01;17.10;99.90
40287;DHT22;25998;46.604;13.610;2022-09-09T02:08:20;17.20;99.90
40287;DHT22;25998;46.604;13.610;2022-09-09T02:11:33;17.00;99.90
40287;DHT22;25998;46.604;13.610;2022-09-09T02:14:55;17.00;99.90
40287;DHT22;25998;46.604;13.610;2022-09-09T02:18:08;16.90;99.90
40287;DHT22;25998;46.604;13.610;2022-09-09T02:21:22;17.00;99.90
40287;DHT22;25998;46.604;13.610;2022-09-09T02:24:37;17.00;99.90
40287;DHT22;25998;46.604;13.610;2022-09-09T02:27:50;16.90;99.90
40287;DHT22;25998;46.604;13.610;2022-09-09T02:31:02;17.10;99.90
40287;DHT22;25998;46.604;13.610;2022-09-09T02:34:14;17.20;99.90
40287;DHT22;25998;46.604;13.610;2022-09-09T02:37:32;17.20;99.90
40287;DHT22;25998;46.604;13.610;2022-09-09T02:40:45;17.30;99.90
40287;DHT22;25998;46.604;13.610;2022-09-09T02:43:56;17.10;99.90
40287;DHT22;25998;46.604;13.610;2022-09-09T02:47:34;16.80;99.90
40287;DHT22;25998;46.604;13.610;2022-09-09T02:54:24;16.40;99.90
40287;DHT22;25998;46.604;13.610;2022-09-09T02:57:39;16.50;99.90
40287;DHT22;25998;46.604;13.610;2022-09-09T03:00:53;16.60;99.90
40287;DHT22;25998;46.604;13.610;2022-09-09T03:04:04;16.70;99.90
40287;DHT22;25998;46.604;13.610;2022-09-09T03:07:16;16.80;99.90
40287;DHT22;25998;46.604;13.610;2022-09-09T03:10:27;16.80;99.90
40287;DHT22;25998;46.604;13.610;2022-09-09T03:13:41;16.70;99.90
40287;DHT22;25998;46.604;13.610;2022-09-09T03:16:52;16.80;99.90
40287;DHT22;25998;46.604;13.610;2022-09-09T03:20:04;16.90;99.90
40287;DHT22;25998;46.604;13.610;2022-09-09T03:23:15;16.90;99.90
40287;DHT22;25998;46.604;13.610;2022-09-09T03:26:26;16.80;99.90
40287;DHT22;25998;46.604;13.610;2022-09-09T03:29:36;16.70;99.90
40287;DHT22;25998;46.604;13.610;2022-09-09T03:32:47;16.70;99.90
40287;DHT22;25998;46.604;13.610;2022-09-09T03:35:58;16.60;99.90
40287;DHT22;25998;46.604;13.610;2022-09-09T03:39:09;16.70;99.90
40287;DHT22;25998;46.604;13.610;2022-09-09T03:42:20;16.60;99.90
40287;DHT22;25998;46.604;13.610;2022-09-09T03:45:32;16.60;99.90
40287;DHT22;25998;46.604;13.610;2022-09-09T03:48:43;16.70;99.90
40287;DHT22;25998;46.604;13.610;2022-09-09T03:51:55;16.70;99.90
40287;DHT22;25998;46.604;13.610;2022-09-09T03:55:08;16.50;99.90
40287;DHT22;25998;46.604;13.610;2022-09-09T03:58:19;16.40;99.90
40287;DHT22;25998;46.604;13.610;2022-09-09T04:01:29;16.60;99.90
40287;DHT22;25998;46.604;13.610;2022-09-09T04:04:40;16.70;99.90
40287;DHT22;25998;46.604;13.610;2022-09-09T04:07:51;16.70;99.90
40287;DHT22;25998;46.604;13.610;2022-09-09T04:11:03;16.70;99.90
40287;DHT22;25998;46.604;13.610;2022-09-09T04:14:17;16.70;99.90
40287;DHT22;25998;46.604;13.610;2022-09-09T04:17:28;16.80;99.90
40287;DHT22;25998;46.604;13.610;2022-09-09T04:20:39;16.70;99.90
40287;DHT22;25998;46.604;13.610;2022-09-09T04:23:50;16.70;99.90
40287;DHT22;25998;46.604;13.610;2022-09-09T04:27:01;16.70;99.90
40287;DHT22;25998;46.604;13.610;2022-09-09T04:30:12;16.60;99.90
40287;DHT22;25998;46.604;13.610;2022-09-09T04:33:24;16.60;99.90
40287;DHT22;25998;46.604;13.610;2022-09-09T04:36:38;16.60;99.90
40287;DHT22;25998;46.604;13.610;2022-09-09T04:39:51;16.50;99.90
40287;DHT22;25998;46.604;13.610;2022-09-09T04:43:03;16.50;99.90
40287;DHT22;25998;46.604;13.610;2022-09-09T04:46:16;16.50;99.90
40287;DHT22;25998;46.604;13.610;2022-09-09T04:49:30;16.60;99.90
40287;DHT22;25998;46.604;13.610;2022-09-09T04:52:42;16.60;99.90
40287;DHT22;25998;46.604;13.610;2022-09-09T04:56:08;16.40;99.90
40287;DHT22;25998;46.604;13.610;2022-09-09T04:59:21;16.40;99.90
40287;DHT22;25998;46.604;13.610;2022-09-09T05:02:32;16.30;99.90
40287;DHT22;25998;46.604;13.610;2022-09-09T05:05:46;16.30;99.90
40287;DHT22;25998;46.604;13.610;2022-09-09T05:08:56;16.30;99.90
40287;DHT22;25998;46.604;13.610;2022-09-09T05:12:08;16.50;99.90
40287;DHT22;25998;46.604;13.610;2022-09-09T05:15:19;16.40;99.90
40287;DHT22;25998;46.604;13.610;2022-09-09T05:18:31;16.50;99.90
40287;DHT22;25998;46.604;13.610;2022-09-09T05:21:42;16.20;99.90
40287;DHT22;25998;46.604;13.610;2022-09-09T05:24:52;16.00;99.90
40287;DHT22;25998;46.604;13.610;2022-09-09T05:28:03;15.90;99.90
40287;DHT22;25998;46.604;13.610;2022-09-09T05:31:16;16.00;99.90
40287;DHT22;25998;46.604;13.610;2022-09-09T05:34:27;16.30;99.90
40287;DHT22;25998;46.604;13.610;2022-09-09T05:37:37;16.40;99.90
40287;DHT22;25998;46.604;13.610;2022-09-09T05:40:48;16.30;99.90
40287;DHT22;25998;46.604;13.610;2022-09-09T05:44:00;16.30;99.90
40287;DHT22;25998;46.604;13.610;2022-09-09T05:47:12;16.40;99.90
40287;DHT22;25998;46.604;13.610;2022-09-09T05:50:22;16.50;99.90
40287;DHT22;25998;46.604;13.610;2022-09-09T05:53:33;16.60;99.90
40287;DHT22;25998;46.604;13.610;2022-09-09T05:56:44;16.50;99.90
40287;DHT22;25998;46.604;13.610;2022-09-09T05:59:55;16.50;99.90
40287;DHT22;25998;46.604;13.610;2022-09-09T06:03:06;16.50;99.90
40287;DHT22;25998;46.604;13.610;2022-09-09T06:06:22;16.40;99.90
40287;DHT22;25998;46.604;13.610;2022-09-09T06:09:34;16.20;99.90
40287;DHT22;25998;46.604;13.610;2022-09-09T06:12:45;16.30;99.90
40287;DHT22;25998;46.604;13.610;2022-09-09T06:15:56;16.30;99.90
40287;DHT22;25998;46.604;13.610;2022-09-09T06:19:07;16.40;99.90
40287;DHT22;25998;46.604;13.610;2022-09-09T06:22:18;16.50;99.90
40287;DHT22;25998;46.604;13.610;2022-09-09T06:25:29;16.40;99.90
40287;DHT22;25998;46.604;13.610;2022-09-09T06:28:41;16.40;99.90
40287;DHT22;25998;46.604;13.610;2022-09-09T06:31:53;16.30;99.90
40287;DHT22;25998;46.604;13.610;2022-09-09T06:35:04;16.30;99.90
40287;DHT22;25998;46.604;13.610;2022-09-09T06:38:15;16.30;99.90
40287;DHT22;25998;46.604;13.610;2022-09-09T06:41:28;16.10;99.90
40287;DHT22;25998;46.604;13.610;2022-09-09T06:44:39;16.10;99.90
40287;DHT22;25998;46.604;13.610;2022-09-09T06:47:50;16.10;99.90
40287;DHT22;25998;46.604;13.610;2022-09-09T06:51:06;16.10;99.90
40287;DHT22;25998;46.604;13.610;2022-09-09T06:54:17;16.30;99.90
40287;DHT22;25998;46.604;13.610;2022-09-09T06:57:30;16.30;99.90
40287;DHT22;25998;46.604;13.610;2022-09-09T07:00:41;16.30;99.90
40287;DHT22;25998;46.604;13.610;2022-09-09T07:03:54;16.30;99.90
40287;DHT22;25998;46.604;13.610;2022-09-09T07:07:05;16.30;99.90
40287;DHT22;25998;46.604;13.610;2022-09-09T07:10:16;16.20;99.90
40287;DHT22;25998;46.604;13.610;2022-09-09T07:13:27;16.10;99.90
40287;DHT22;25998;46.604;13.610;2022-09-09T07:16:38;16.30;99.90
40287;DHT22;25998;46.604;13.610;2022-09-09T07:19:50;16.40;99.90
40287;DHT22;25998;46.604;13.610;2022-09-09T07:23:01;16.60;99.90
40287;DHT22;25998;46.604;13.610;2022-09-09T07:26:14;16.70;99.90
40287;DHT22;25998;46.604;13.610;2022-09-09T07:29:25;16.60;99.90
40287;DHT22;25998;46.604;13.610;2022-09-09T07:32:36;16.50;99.90
40287;DHT22;25998;46.604;13.610;2022-09-09T07:35:46;16.70;99.90
40287;DHT22;25998;46.604;13.610;2022-09-09T07:39:04;16.70;99.90
40287;DHT22;25998;46.604;13.610;2022-09-09T07:42:15;16.70;99.90
40287;DHT22;25998;46.604;13.610;2022-09-09T07:45:27;16.70;99.90
40287;DHT22;25998;46.604;13.610;2022-09-09T07:48:45;16.80;99.90
40287;DHT22;25998;46.604;13.610;2022-09-09T07:51:57;16.80;99.90
40287;DHT22;25998;46.604;13.610;2022-09-09T07:55:08;16.70;99.90
40287;DHT22;25998;46.604;13.610;2022-09-09T07:58:19;16.80;99.90
40287;DHT22;25998;46.604;13.610;2022-09-09T08:01:34;16.80;99.90
40287;DHT22;25998;46.604;13.610;2022-09-09T08:04:47;16.80;99.90
40287;DHT22;25998;46.604;13.610;2022-09-09T08:07:58;16.90;99.90
40287;DHT22;25998;46.604;13.610;2022-09-09T08:11:12;16.90;99.90
40287;DHT22;25998;46.604;13.610;2022-09-09T08:14:24;16.90;99.90
40287;DHT22;25998;46.604;13.610;2022-09-09T08:17:35;17.00;99.90
40287;DHT22;25998;46.604;13.610;2022-09-09T08:20:48;17.20;99.90
40287;DHT22;25998;46.604;13.610;2022-09-09T08:24:00;17.30;99.90
40287;DHT22;25998;46.604;13.610;2022-09-09T08:27:12;17.40;99.90
40287;DHT22;25998;46.604;13.610;2022-09-09T08:30:23;17.70;99.90
40287;DHT22;25998;46.604;13.610;2022-09-09T08:33:34;17.80;99.90
40287;DHT22;25998;46.604;13.610;2022-09-09T08:36:48;17.70;99.90
40287;DHT22;25998;46.604;13.610;2022-09-09T08:39:59;17.60;99.90
40287;DHT22;25998;46.604;13.610;2022-09-09T08:43:10;17.60;99.90
40287;DHT22;25998;46.604;13.610;2022-09-09T08:50:06;17.50;99.90
40287;DHT22;25998;46.604;13.610;2022-09-09T08:53:24;17.60;99.90
40287;DHT22;25998;46.604;13.610;2022-09-09T08:56:36;17.60;99.90
40287;DHT22;25998;46.604;13.610;2022-09-09T08:59:49;17.50;99.90
40287;DHT22;25998;46.604;13.610;2022-09-09T09:10:56;17.30;99.90
40287;DHT22;25998;46.604;13.610;2022-09-09T09:14:01;17.30;99.90
40287;DHT22;25998;46.604;13.610;2022-09-09T09:17:19;17.30;99.90
40287;DHT22;25998;46.604;13.610;2022-09-09T09:23:57;17.40;99.90
40287;DHT22;25998;46.604;13.610;2022-09-09T09:27:33;17.20;99.90
40287;DHT22;25998;46.604;13.610;2022-09-09T09:30:57;17.30;99.90
40287;DHT22;25998;46.604;13.610;2022-09-09T09:34:10;17.20;99.90
40287;DHT22;25998;46.604;13.610;2022-09-09T09:37:30;17.30;99.90
40287;DHT22;25998;46.604;13.610;2022-09-09T09:40:54;17.50;99.90
40287;DHT22;25998;46.604;13.610;2022-09-09T09:44:26;17.60;99.90
40287;DHT22;25998;46.604;13.610;2022-09-09T09:47:37;17.60;99.90
40287;DHT22;25998;46.604;13.610;2022-09-09T09:50:58;17.50;99.90
40287;DHT22;25998;46.604;13.610;2022-09-09T09:54:27;17.40;99.90
40287;DHT22;25998;46.604;13.610;2022-09-09T09:57:39;17.30;99.90
40287;DHT22;25998;46.604;13.610;2022-09-09T10:00:52;17.30;99.90
40287;DHT22;25998;46.604;13.610;2022-09-09T10:04:22;17.40;99.90
40287;DHT22;25998;46.604;13.610;2022-09-09T10:07:34;17.50;99.90
40287;DHT22;25998;46.604;13.610;2022-09-09T10:14:44;17.40;99.90
40287;DHT22;25998;46.604;13.610;2022-09-09T10:36:08;17.40;99.90
40287;DHT22;25998;46.604;13.610;2022-09-09T10:39:35;17.40;99.90
40287;DHT22;25998;46.604;13.610;2022-09-09T10:42:47;17.30;99.90
40287;DHT22;25998;46.604;13.610;2022-09-09T10:46:20;17.40;99.90
40287;DHT22;25998;46.604;13.610;2022-09-09T10:53:18;17.40;99.90
40287;DHT22;25998;46.604;13.610;2022-09-09T10:56:32;17.50;99.90
40287;DHT22;25998;46.604;13.610;2022-09-09T10:59:48;17.40;99.90
40287;DHT22;25998;46.604;13.610;2022-09-09T11:03:03;17.40;99.90
40287;DHT22;25998;46.604;13.610;2022-09-09T11:06:19;17.40;99.90
40287;DHT22;25998;46.604;13.610;2022-09-09T11:09:35;17.50;99.90
40287;DHT22;25998;46.604;13.610;2022-09-09T11:12:49;17.40;99.90
40287;DHT22;25998;46.604;13.610;2022-09-09T11:19:41;17.30;99.90
40287;DHT22;25998;46.604;13.610;2022-09-09T11:23:04;17.30;99.90
40287;DHT22;25998;46.604;13.610;2022-09-09T11:26:31;17.20;99.90
40287;DHT22;25998;46.604;13.610;2022-09-09T11:36:39;17.20;99.90
40287;DHT22;25998;46.604;13.610;2022-09-09T11:40:23;17.30;99.90
40287;DHT22;25998;46.604;13.610;2022-09-09T11:43:42;17.30;99.90
40287;DHT22;25998;46.604;13.610;2022-09-09T11:46:53;17.30;99.90
40287;DHT22;25998;46.604;13.610;2022-09-09T11:50:31;17.10;99.90
40287;DHT22;25998;46.604;13.610;2022-09-09T11:53:52;17.00;99.90
40287;DHT22;25998;46.604;13.610;2022-09-09T11:57:03;17.10;99.90
40287;DHT22;25998;46.604;13.610;2022-09-09T12:00:37;17.20;99.90
40287;DHT22;25998;46.604;13.610;2022-09-09T12:03:50;17.30;99.90
40287;DHT22;25998;46.604;13.610;2022-09-09T12:10:30;17.50;99.90
40287;DHT22;25998;46.604;13.610;2022-09-09T12:13:53;17.40;99.90
40287;DHT22;25998;46.604;13.610;2022-09-09T12:20:33;17.40;99.90
40287;DHT22;25998;46.604;13.610;2022-09-09T12:23:58;17.30;99.90
40287;DHT22;25998;46.604;13.610;2022-09-09T12:27:34;17.20;99.90
40287;DHT22;25998;46.604;13.610;2022-09-09T12:30:49;17.40;99.90
40287;DHT22;25998;46.604;13.610;2022-09-09T12:34:11;17.50;99.90
40287;DHT22;25998;46.604;13.610;2022-09-09T12:40:55;17.50;99.90
40287;DHT22;25998;46.604;13.610;2022-09-09T12:44:09;17.60;99.90
40287;DHT22;25998;46.604;13.610;2022-09-09T12:50:53;17.70;99.90
40287;DHT22;25998;46.604;13.610;2022-09-09T12:54:12;17.80;99.90
40287;DHT22;25998;46.604;13.610;2022-09-09T12:57:25;17.80;99.90
40287;DHT22;25998;46.604;13.610;2022-09-09T13:00:36;17.60;99.90
40287;DHT22;25998;46.604;13.610;2022-09-09T13:03:47;17.60;99.90
40287;DHT22;25998;46.604;13.610;2022-09-09T13:07:08;17.60;99.90
40287;DHT22;25998;46.604;13.610;2022-09-09T13:10:24;17.60;99.90
40287;DHT22;25998;46.604;13.610;2022-09-09T13:13:40;17.60;99.90
40287;DHT22;25998;46.604;13.610;2022-09-09T13:16:59;17.50;99.90
40287;DHT22;25998;46.604;13.610;2022-09-09T13:20:17;17.60;99.90
40287;DHT22;25998;46.604;13.610;2022-09-09T13:23:33;17.70;99.90
40287;DHT22;25998;46.604;13.610;2022-09-09T13:26:55;17.70;99.90
40287;DHT22;25998;46.604;13.610;2022-09-09T13:30:42;17.70;99.90
40287;DHT22;25998;46.604;13.610;2022-09-09T13:33:55;17.70;99.90
40287;DHT22;25998;46.604;13.610;2022-09-09T13:37:28;17.80;99.90
40287;DHT22;25998;46.604;13.610;2022-09-09T13:40:56;17.90;99.90
40287;DHT22;25998;46.604;13.610;2022-09-09T13:44:19;17.90;99.90
40287;DHT22;25998;46.604;13.610;2022-09-09T13:47:35;18.10;99.90
40287;DHT22;25998;46.604;13.610;2022-09-09T13:51:03;18.30;99.90
40287;DHT22;25998;46.604;13.610;2022-09-09T13:54:19;18.40;99.90
40287;DHT22;25998;46.604;13.610;2022-09-09T13:57:31;18.60;99.90
40287;DHT22;25998;46.604;13.610;2022-09-09T14:00:42;18.40;99.90
40287;DHT22;25998;46.604;13.610;2022-09-09T14:03:55;18.30;99.90
40287;DHT22;25998;46.604;13.610;2022-09-09T14:07:07;18.10;99.90
40287;DHT22;25998;46.604;13.610;2022-09-09T14:10:19;18.10;99.90
40287;DHT22;25998;46.604;13.610;2022-09-09T14:13:30;18.00;99.90
40287;DHT22;25998;46.604;13.610;2022-09-09T14:16:41;18.00;99.90
40287;DHT22;25998;46.604;13.610;2022-09-09T14:19:52;18.00;99.90
40287;DHT22;25998;46.604;13.610;2022-09-09T14:23:03;18.10;99.90
40287;DHT22;25998;46.604;13.610;2022-09-09T14:26:14;18.10;99.90
40287;DHT22;25998;46.604;13.610;2022-09-09T14:29:25;18.10;99.90
40287;DHT22;25998;46.604;13.610;2022-09-09T14:32:37;18.10;99.90
40287;DHT22;25998;46.604;13.610;2022-09-09T14:35:47;18.10;99.90
40287;DHT22;25998;46.604;13.610;2022-09-09T14:38:59;18.10;99.90
40287;DHT22;25998;46.604;13.610;2022-09-09T14:42:10;18.10;99.90
40287;DHT22;25998;46.604;13.610;2022-09-09T14:45:22;18.00;99.90
40287;DHT22;25998;46.604;13.610;2022-09-09T14:48:35;18.20;99.90
40287;DHT22;25998;46.604;13.610;2022-09-09T14:51:46;18.10;99.90
40287;DHT22;25998;46.604;13.610;2022-09-09T14:54:57;17.80;99.90
40287;DHT22;25998;46.604;13.610;2022-09-09T14:58:08;17.80;99.90
40287;DHT22;25998;46.604;13.610;2022-09-09T15:01:19;17.80;99.90
40287;DHT22;25998;46.604;13.610;2022-09-09T15:04:33;17.80;99.90
40287;DHT22;25998;46.604;13.610;2022-09-09T15:07:45;17.80;99.90
40287;DHT22;25998;46.604;13.610;2022-09-09T15:11:00;17.70;99.90
40287;DHT22;25998;46.604;13.610;2022-09-09T15:14:11;17.60;99.90
40287;DHT22;25998;46.604;13.610;2022-09-09T15:17:22;17.50;99.90
40287;DHT22;25998;46.604;13.610;2022-09-09T15:20:37;17.50;99.90
40287;DHT22;25998;46.604;13.610;2022-09-09T15:23:49;17.70;99.90
40287;DHT22;25998;46.604;13.610;2022-09-09T15:27:00;17.80;99.90
40287;DHT22;25998;46.604;13.610;2022-09-09T15:30:12;17.70;99.90
40287;DHT22;25998;46.604;13.610;2022-09-09T15:33:23;17.70;99.90
40287;DHT22;25998;46.604;13.610;2022-09-09T15:36:39;17.70;99.90
40287;DHT22;25998;46.604;13.610;2022-09-09T15:39:50;17.70;99.90
40287;DHT22;25998;46.604;13.610;2022-09-09T15:43:01;17.80;99.90
40287;DHT22;25998;46.604;13.610;2022-09-09T15:49:38;17.60;99.90
40287;DHT22;25998;46.604;13.610;2022-09-09T15:52:49;17.50;99.90
40287;DHT22;25998;46.604;13.610;2022-09-09T15:56:02;17.60;99.90
40287;DHT22;25998;46.604;13.610;2022-09-09T15:59:13;17.60;99.90
40287;DHT22;25998;46.604;13.610;2022-09-09T16:02:25;17.50;99.90
40287;DHT22;25998;46.604;13.610;2022-09-09T16:05:36;17.40;99.90
40287;DHT22;25998;46.604;13.610;2022-09-09T16:08:51;17.40;99.90
40287;DHT22;25998;46.604;13.610;2022-09-09T16:12:04;17.40;99.90
40287;DHT22;25998;46.604;13.610;2022-09-09T16:15:20;17.30;99.90
40287;DHT22;25998;46.604;13.610;2022-09-09T16:18:41;17.30;99.90
40287;DHT22;25998;46.604;13.610;2022-09-09T16:21:53;17.30;99.90
40287;DHT22;25998;46.604;13.610;2022-09-09T16:25:04;17.20;99.90
40287;DHT22;25998;46.604;13.610;2022-09-09T16:28:15;17.20;99.90
40287;DHT22;25998;46.604;13.610;2022-09-09T16:31:26;17.10;99.90
40287;DHT22;25998;46.604;13.610;2022-09-09T16:34:37;17.00;99.90
40287;DHT22;25998;46.604;13.610;2022-09-09T16:37:48;16.90;99.90
40287;DHT22;25998;46.604;13.610;2022-09-09T16:40:59;16.90;99.90
40287;DHT22;25998;46.604;13.610;2022-09-09T16:44:11;17.00;99.90
40287;DHT22;25998;46.604;13.610;2022-09-09T16:47:23;17.00;99.90
40287;DHT22;25998;46.604;13.610;2022-09-09T16:50:33;17.00;99.90
40287;DHT22;25998;46.604;13.610;2022-09-09T16:53:45;17.10;99.90
40287;DHT22;25998;46.604;13.610;2022-09-09T16:56:56;17.30;99.90
40287;DHT22;25998;46.604;13.610;2022-09-09T17:00:08;17.40;99.90
40287;DHT22;25998;46.604;13.610;2022-09-09T17:03:19;17.30;99.90
40287;DHT22;25998;46.604;13.610;2022-09-09T17:06:31;17.20;99.90
40287;DHT22;25998;46.604;13.610;2022-09-09T17:09:47;17.10;99.90
40287;DHT22;25998;46.604;13.610;2022-09-09T17:12:58;16.90;99.90
40287;DHT22;25998;46.604;13.610;2022-09-09T17:16:09;17.00;99.90
40287;DHT22;25998;46.604;13.610;2022-09-09T17:19:20;17.00;99.90
40287;DHT22;25998;46.604;13.610;2022-09-09T17:22:31;16.90;99.90
40287;DHT22;25998;46.604;13.610;2022-09-09T17:25:43;16.90;99.90
40287;DHT22;25998;46.604;13.610;2022-09-09T17:28:54;16.90;99.90
40287;DHT22;25998;46.604;13.610;2022-09-09T17:32:06;16.80;99.90
40287;DHT22;25998;46.604;13.610;2022-09-09T17:35:17;16.90;99.90
40287;DHT22;25998;46.604;13.610;2022-09-09T17:38:28;16.90;99.90
40287;DHT22;25998;46.604;13.610;2022-09-09T17:41:40;16.70;99.90
40287;DHT22;25998;46.604;13.610;2022-09-09T17:44:51;16.70;99.90
40287;DHT22;25998;46.604;13.610;2022-09-09T17:48:02;16.90;99.90
40287;DHT22;25998;46.604;13.610;2022-09-09T17:51:17;16.90;99.90
40287;DHT22;25998;46.604;13.610;2022-09-09T17:54:29;16.90;99.90
40287;DHT22;25998;46.604;13.610;2022-09-09T17:57:40;17.00;99.90
40287;DHT22;25998;46.604;13.610;2022-09-09T18:00:51;17.00;99.90
40287;DHT22;25998;46.604;13.610;2022-09-09T18:04:04;17.00;99.90
40287;DHT22;25998;46.604;13.610;2022-09-09T18:07:15;16.90;99.90
40287;DHT22;25998;46.604;13.610;2022-09-09T18:10:26;16.80;99.90
40287;DHT22;25998;46.604;13.610;2022-09-09T18:13:37;16.70;99.90
40287;DHT22;25998;46.604;13.610;2022-09-09T18:16:48;16.70;99.90
40287;DHT22;25998;46.604;13.610;2022-09-09T18:19:59;16.70;99.90
40287;DHT22;25998;46.604;13.610;2022-09-09T18:23:10;16.70;99.90
40287;DHT22;25998;46.604;13.610;2022-09-09T18:26:23;16.80;99.90
40287;DHT22;25998;46.604;13.610;2022-09-09T18:29:34;16.90;99.90
40287;DHT22;25998;46.604;13.610;2022-09-09T18:32:48;16.90;99.90
40287;DHT22;25998;46.604;13.610;2022-09-09T18:36:13;16.90;99.90
40287;DHT22;25998;46.604;13.610;2022-09-09T18:39:26;16.90;99.90
40287;DHT22;25998;46.604;13.610;2022-09-09T18:42:38;16.90;99.90
40287;DHT22;25998;46.604;13.610;2022-09-09T18:45:48;16.90;99.90
40287;DHT22;25998;46.604;13.610;2022-09-09T18:48:59;16.80;99.90
40287;DHT22;25998;46.604;13.610;2022-09-09T18:52:10;16.80;99.90
40287;DHT22;25998;46.604;13.610;2022-09-09T18:55:21;16.70;99.90
40287;DHT22;25998;46.604;13.610;2022-09-09T18:58:33;16.80;99.90
40287;DHT22;25998;46.604;13.610;2022-09-09T19:01:45;16.80;99.90
40287;DHT22;25998;46.604;13.610;2022-09-09T19:04:56;16.80;99.90
40287;DHT22;25998;46.604;13.610;2022-09-09T19:08:07;16.90;99.90
40287;DHT22;25998;46.604;13.610;2022-09-09T19:11:20;16.70;99.90
40287;DHT22;25998;46.604;13.610;2022-09-09T19:14:31;16.50;99.90
40287;DHT22;25998;46.604;13.610;2022-09-09T19:17:42;16.40;99.90
40287;DHT22;25998;46.604;13.610;2022-09-09T19:20:53;16.30;99.90
40287;DHT22;25998;46.604;13.610;2022-09-09T19:24:07;16.30;99.90
40287;DHT22;25998;46.604;13.610;2022-09-09T19:27:21;16.30;99.90
40287;DHT22;25998;46.604;13.610;2022-09-09T19:30:34;16.30;99.90
40287;DHT22;25998;46.604;13.610;2022-09-09T19:33:47;16.20;99.90
40287;DHT22;25998;46.604;13.610;2022-09-09T19:36:59;16.20;99.90
40287;DHT22;25998;46.604;13.610;2022-09-09T19:40:10;16.30;99.90
40287;DHT22;25998;46.604;13.610;2022-09-09T19:43:21;16.40;99.90
40287;DHT22;25998;46.604;13.610;2022-09-09T19:46:36;16.60;99.90
40287;DHT22;25998;46.604;13.610;2022-09-09T19:49:47;16.60;99.90
40287;DHT22;25998;46.604;13.610;2022-09-09T19:52:58;16.60;99.90
40287;DHT22;25998;46.604;13.610;2022-09-09T19:56:10;16.60;99.90
40287;DHT22;25998;46.604;13.610;2022-09-09T19:59:24;16.70;99.90
40287;DHT22;25998;46.604;13.610;2022-09-09T20:02:34;16.50;99.90
40287;DHT22;25998;46.604;13.610;2022-09-09T20:05:46;16.30;99.90
40287;DHT22;25998;46.604;13.610;2022-09-09T20:08:59;16.10;99.90
40287;DHT22;25998;46.604;13.610;2022-09-09T20:12:10;16.00;99.90
40287;DHT22;25998;46.604;13.610;2022-09-09T20:15:21;16.10;99.90
40287;DHT22;25998;46.604;13.610;2022-09-09T20:18:37;16.10;99.90
40287;DHT22;25998;46.604;13.610;2022-09-09T20:21:49;16.10;99.90
40287;DHT22;25998;46.604;13.610;2022-09-09T20:25:01;16.20;99.90
40287;DHT22;25998;46.604;13.610;2022-09-09T20:28:12;16.10;99.90
40287;DHT22;25998;46.604;13.610;2022-09-09T20:31:26;16.10;99.90
40287;DHT22;25998;46.604;13.610;2022-09-09T20:34:37;16.10;99.90
40287;DHT22;25998;46.604;13.610;2022-09-09T20:37:48;16.10;99.90
40287;DHT22;25998;46.604;13.610;2022-09-09T20:41:03;16.00;99.90
40287;DHT22;25998;46.604;13.610;2022-09-09T20:44:19;16.10;99.90
40287;DHT22;25998;46.604;13.610;2022-09-09T20:47:33;16.20;99.90
40287;DHT22;25998;46.604;13.610;2022-09-09T20:50:44;16.10;99.90
40287;DHT22;25998;46.604;13.610;2022-09-09T20:53:56;16.20;99.90
40287;DHT22;25998;46.604;13.610;2022-09-09T20:57:07;15.90;99.90
40287;DHT22;25998;46.604;13.610;2022-09-09T21:00:18;15.80;99.90
40287;DHT22;25998;46.604;13.610;2022-09-09T21:03:31;15.60;99.90
40287;DHT22;25998;46.604;13.610;2022-09-09T21:06:43;15.50;99.90
40287;DHT22;25998;46.604;13.610;2022-09-09T21:09:54;15.70;99.90
40287;DHT22;25998;46.604;13.610;2022-09-09T21:13:07;15.90;99.90
40287;DHT22;25998;46.604;13.610;2022-09-09T21:16:18;15.90;99.90
40287;DHT22;25998;46.604;13.610;2022-09-09T21:19:30;15.70;99.90
40287;DHT22;25998;46.604;13.610;2022-09-09T21:22:41;15.70;99.90
40287;DHT22;25998;46.604;13.610;2022-09-09T21:25:53;15.60;99.90
40287;DHT22;25998;46.604;13.610;2022-09-09T21:29:04;15.50;99.90
40287;DHT22;25998;46.604;13.610;2022-09-09T21:32:15;15.80;99.90
40287;DHT22;25998;46.604;13.610;2022-09-09T21:35:27;16.00;99.90
40287;DHT22;25998;46.604;13.610;2022-09-09T21:38:38;16.00;99.90